sensor_id;sensor_type;location;lat;lon;timestamp;pressure;altitude;pressure_sealevel;temperature;humidity
7058;BME280;3570;43.080;25.628;2022-10-16T00:01:22;-19823.72;;;12.72;100.00
7058;BME280;3570;43.080;25.628;2022-10-16T00:03:48;-19821.38;;;12.64;100.00
7058;BME280;3570;43.080;25.628;2022-10-16T00:06:16;-19815.09;;;12.42;100.00
7058;BME280;3570;43.080;25.628;2022-10-16T00:08:42;-19811.75;;;12.30;100.00
7058;BME280;3570;43.080;25.628;2022-10-16T00:13:45;-19783.16;;;11.32;100.00
7058;BME280;3570;43.080;25.628;2022-10-16T00:16:30;-19765.19;;;10.70;100.00
7058;BME280;3570;43.080;25.628;2022-10-16T00:19:14;-19762.84;;;10.62;100.00
7058;BME280;3570;43.080;25.628;2022-10-16T00:21:59;-19779.06;;;11.18;100.00
7058;BME280;3570;43.080;25.628;2022-10-16T00:24:43;-19795.84;;;11.76;100.00
7058;BME280;3570;43.080;25.628;2022-10-16T00:27:27;-19795.41;;;11.74;100.00
7058;BME280;3570;43.080;25.628;2022-10-16T00:30:11;-19789.44;;;11.54;100.00
7058;BME280;3570;43.080;25.628;2022-10-16T00:32:55;-19793.66;;;11.68;100.00
7058;BME280;3570;43.080;25.628;2022-10-16T00:35:39;-19787.81;;;11.48;100.00
7058;BME280;3570;43.080;25.628;2022-10-16T00:38:23;-19794.97;;;11.73;100.00
7058;BME280;3570;43.080;25.628;2022-10-16T00:41:11;-19792.34;;;11.64;100.00
7058;BME280;3570;43.080;25.628;2022-10-16T00:43:58;-19795.13;;;11.73;100.00
7058;BME280;3570;43.080;25.628;2022-10-16T00:46:42;-19795.25;;;11.74;100.00
7058;BME280;3570;43.080;25.628;2022-10-16T00:49:26;-19789.44;;;11.54;100.00
7058;BME280;3570;43.080;25.628;2022-10-16T00:52:11;-19788.84;;;11.52;100.00
7058;BME280;3570;43.080;25.628;2022-10-16T00:54:56;-19792.34;;;11.64;100.00
7058;BME280;3570;43.080;25.628;2022-10-16T00:57:41;-19796.59;;;11.78;100.00
7058;BME280;3570;43.080;25.628;2022-10-16T01:00:26;-19797.47;;;11.81;100.00
7058;BME280;3570;43.080;25.628;2022-10-16T01:03:43;-19798.91;;;11.86;100.00
7058;BME280;3570;43.080;25.628;2022-10-16T01:06:46;-19800.97;;;11.93;100.00
7058;BME280;3570;43.080;25.628;2022-10-16T01:12:57;-19805.34;;;12.08;100.00
7058;BME280;3570;43.080;25.628;2022-10-16T01:21:36;-19807.38;;;12.15;100.00
7058;BME280;3570;43.080;25.628;2022-10-16T01:24:33;-19807.38;;;12.15;100.00
7058;BME280;3570;43.080;25.628;2022-10-16T01:30:17;-19807.53;;;12.16;100.00
7058;BME280;3570;43.080;25.628;2022-10-16T01:33:08;-19799.06;;;11.87;100.00
7058;BME280;3570;43.080;25.628;2022-10-16T01:35:58;-19803.28;;;12.01;100.00
7058;BME280;3570;43.080;25.628;2022-10-16T01:38:47;-19802.72;;;11.99;100.00
7058;BME280;3570;43.080;25.628;2022-10-16T01:41:38;-19801.84;;;11.96;100.00
7058;BME280;3570;43.080;25.628;2022-10-16T01:44:27;-19798.34;;;11.84;100.00
7058;BME280;3570;43.080;25.628;2022-10-16T01:47:13;-19797.16;;;11.80;100.00
7058;BME280;3570;43.080;25.628;2022-10-16T01:49:59;-19791.31;;;11.60;100.00
7058;BME280;3570;43.080;25.628;2022-10-16T01:52:48;-19791.31;;;11.60;100.00
7058;BME280;3570;43.080;25.628;2022-10-16T01:55:37;-19785.91;;;11.42;100.00
7058;BME280;3570;43.080;25.628;2022-10-16T01:58:23;-19783.16;;;11.32;100.00
7058;BME280;3570;43.080;25.628;2022-10-16T02:01:10;-19764.59;;;10.68;100.00
7058;BME280;3570;43.080;25.628;2022-10-16T02:03:59;-19753.81;;;10.31;100.00
7058;BME280;3570;43.080;25.628;2022-10-16T02:06:45;-19753.50;;;10.30;100.00
7058;BME280;3570;43.080;25.628;2022-10-16T02:09:30;-19741.66;;;9.89;100.00
7058;BME280;3570;43.080;25.628;2022-10-16T02:12:27;-19755.69;;;10.37;100.00
7058;BME280;3570;43.080;25.628;2022-10-16T02:15:11;-19762.56;;;10.61;100.00
7058;BME280;3570;43.080;25.628;2022-10-16T02:17:55;-19784.91;;;11.38;100.00
7058;BME280;3570;43.080;25.628;2022-10-16T02:20:54;-19791.63;;;11.61;100.00
7058;BME280;3570;43.080;25.628;2022-10-16T02:23:54;-19799.34;;;11.88;100.00
7058;BME280;3570;43.080;25.628;2022-10-16T02:29:28;-19793.22;;;11.67;100.00
7058;BME280;3570;43.080;25.628;2022-10-16T02:32:14;-19795.69;;;11.75;100.00
7058;BME280;3570;43.080;25.628;2022-10-16T02:34:59;-19797.88;;;11.83;100.00
7058;BME280;3570;43.080;25.628;2022-10-16T02:37:46;-19791.91;;;11.62;100.00
7058;BME280;3570;43.080;25.628;2022-10-16T02:40:31;-19792.63;;;11.65;100.00
7058;BME280;3570;43.080;25.628;2022-10-16T02:43:16;-19780.22;;;11.22;100.00
7058;BME280;3570;43.080;25.628;2022-10-16T02:46:01;-19798.91;;;11.86;100.00
7058;BME280;3570;43.080;25.628;2022-10-16T02:48:45;-19796.00;;;11.76;100.00
7058;BME280;3570;43.080;25.628;2022-10-16T02:51:29;-19786.94;;;11.45;100.00
7058;BME280;3570;43.080;25.628;2022-10-16T02:54:13;-19790.44;;;11.57;100.00
7058;BME280;3570;43.080;25.628;2022-10-16T02:56:57;-19785.91;;;11.42;100.00
7058;BME280;3570;43.080;25.628;2022-10-16T02:59:41;-19791.63;;;11.61;100.00
7058;BME280;3570;43.080;25.628;2022-10-16T03:02:25;-19776.13;;;11.08;100.00
7058;BME280;3570;43.080;25.628;2022-10-16T03:05:09;-19765.91;;;10.73;100.00
7058;BME280;3570;43.080;25.628;2022-10-16T03:07:53;-19752.91;;;10.28;100.00
7058;BME280;3570;43.080;25.628;2022-10-16T03:10:38;-19731.72;;;9.55;100.00
7058;BME280;3570;43.080;25.628;2022-10-16T03:13:22;-19729.97;;;9.49;100.00
7058;BME280;3570;43.080;25.628;2022-10-16T03:16:06;-19734.06;;;9.63;100.00
7058;BME280;3570;43.080;25.628;2022-10-16T03:18:49;-19748.41;;;10.12;100.00
7058;BME280;3570;43.080;25.628;2022-10-16T03:21:33;-19768.84;;;10.83;100.00
7058;BME280;3570;43.080;25.628;2022-10-16T03:24:17;-19776.72;;;11.10;100.00
7058;BME280;3570;43.080;25.628;2022-10-16T03:27:02;-19776.44;;;11.09;100.00
7058;BME280;3570;43.080;25.628;2022-10-16T03:29:45;-19770.00;;;10.87;100.00
7058;BME280;3570;43.080;25.628;2022-10-16T03:32:29;-19769.13;;;10.84;100.00
7058;BME280;3570;43.080;25.628;2022-10-16T03:35:13;-19754.53;;;10.33;100.00
7058;BME280;3570;43.080;25.628;2022-10-16T03:37:57;-19720.91;;;9.18;100.00
7058;BME280;3570;43.080;25.628;2022-10-16T03:40:41;-19716.66;;;9.03;100.00
7058;BME280;3570;43.080;25.628;2022-10-16T03:43:25;-19705.84;;;8.66;100.00
7058;BME280;3570;43.080;25.628;2022-10-16T03:46:09;-19684.63;;;7.93;100.00
7058;BME280;3570;43.080;25.628;2022-10-16T03:48:53;-19669.84;;;7.42;100.00
7058;BME280;3570;43.080;25.628;2022-10-16T03:51:37;-19675.56;;;7.62;100.00
7058;BME280;3570;43.080;25.628;2022-10-16T03:54:21;-19683.59;;;7.90;100.00
7058;BME280;3570;43.080;25.628;2022-10-16T03:57:06;-19668.53;;;7.38;100.00
7058;BME280;3570;43.080;25.628;2022-10-16T03:59:50;-19671.31;;;7.47;100.00
7058;BME280;3570;43.080;25.628;2022-10-16T04:02:34;-19668.25;;;7.37;100.00
7058;BME280;3570;43.080;25.628;2022-10-16T04:05:18;-19696.94;;;8.35;100.00
7058;BME280;3570;43.080;25.628;2022-10-16T04:08:03;-19716.97;;;9.04;100.00
7058;BME280;3570;43.080;25.628;2022-10-16T04:10:47;-19740.66;;;9.86;100.00
7058;BME280;3570;43.080;25.628;2022-10-16T04:13:31;-19754.38;;;10.33;100.00
7058;BME280;3570;43.080;25.628;2022-10-16T04:16:15;-19760.06;;;10.53;100.00
7058;BME280;3570;43.080;25.628;2022-10-16T04:18:59;-19756.44;;;10.40;100.00
7058;BME280;3570;43.080;25.628;2022-10-16T04:21:43;-19756.88;;;10.41;100.00
7058;BME280;3570;43.080;25.628;2022-10-16T04:24:27;-19761.53;;;10.58;100.00
7058;BME280;3570;43.080;25.628;2022-10-16T04:27:11;-19756.88;;;10.41;100.00
7058;BME280;3570;43.080;25.628;2022-10-16T04:29:55;-19762.56;;;10.61;100.00
7058;BME280;3570;43.080;25.628;2022-10-16T04:32:40;-19757.88;;;10.45;100.00
7058;BME280;3570;43.080;25.628;2022-10-16T04:35:24;-19764.75;;;10.69;100.00
7058;BME280;3570;43.080;25.628;2022-10-16T04:38:08;-19769.72;;;10.86;100.00
7058;BME280;3570;43.080;25.628;2022-10-16T04:40:52;-19754.53;;;10.33;100.00
7058;BME280;3570;43.080;25.628;2022-10-16T04:43:36;-19738.59;;;9.79;100.00
7058;BME280;3570;43.080;25.628;2022-10-16T04:46:20;-19719.75;;;9.14;100.00
7058;BME280;3570;43.080;25.628;2022-10-16T04:49:04;-19722.97;;;9.25;100.00
7058;BME280;3570;43.080;25.628;2022-10-16T04:51:48;-19709.81;;;8.80;100.00
7058;BME280;3570;43.080;25.628;2022-10-16T04:54:32;-19705.84;;;8.66;100.00
7058;BME280;3570;43.080;25.628;2022-10-16T04:57:16;-19691.50;;;8.17;100.00
7058;BME280;3570;43.080;25.628;2022-10-16T05:00:00;-19693.13;;;8.22;100.00
7058;BME280;3570;43.080;25.628;2022-10-16T05:02:44;-19701.75;;;8.52;100.00
7058;BME280;3570;43.080;25.628;2022-10-16T05:05:28;-19716.53;;;9.03;100.00
7058;BME280;3570;43.080;25.628;2022-10-16T05:08:13;-19699.84;;;8.45;100.00
7058;BME280;3570;43.080;25.628;2022-10-16T05:10:58;-19707.31;;;8.71;100.00
7058;BME280;3570;43.080;25.628;2022-10-16T05:13:42;-19722.81;;;9.24;100.00
7058;BME280;3570;43.080;25.628;2022-10-16T05:16:26;-19750.59;;;10.20;100.00
7058;BME280;3570;43.080;25.628;2022-10-16T05:19:10;-19771.63;;;10.92;100.00
7058;BME280;3570;43.080;25.628;2022-10-16T05:21:55;-19782.56;;;11.30;100.00
7058;BME280;3570;43.080;25.628;2022-10-16T05:24:39;-19778.47;;;11.16;100.00
7058;BME280;3570;43.080;25.628;2022-10-16T05:27:23;-19778.47;;;11.16;100.00
7058;BME280;3570;43.080;25.628;2022-10-16T05:30:07;-19786.94;;;11.45;100.00
7058;BME280;3570;43.080;25.628;2022-10-16T05:32:51;-19786.34;;;11.43;100.00
7058;BME280;3570;43.080;25.628;2022-10-16T05:35:35;-19758.31;;;10.47;100.00
7058;BME280;3570;43.080;25.628;2022-10-16T05:38:19;-19738.75;;;9.79;100.00
7058;BME280;3570;43.080;25.628;2022-10-16T05:41:04;-19744.72;;;10.00;100.00
7058;BME280;3570;43.080;25.628;2022-10-16T05:43:49;-19756.72;;;10.41;100.00
7058;BME280;3570;43.080;25.628;2022-10-16T05:46:33;-19772.78;;;10.96;100.00
7058;BME280;3570;43.080;25.628;2022-10-16T05:49:17;-19775.84;;;11.07;100.00
7058;BME280;3570;43.080;25.628;2022-10-16T05:52:01;-19760.06;;;10.53;100.00
7058;BME280;3570;43.080;25.628;2022-10-16T05:54:45;-19766.34;;;10.74;100.00
7058;BME280;3570;43.080;25.628;2022-10-16T05:57:29;-19768.84;;;10.83;100.00
7058;BME280;3570;43.080;25.628;2022-10-16T06:00:14;-19769.41;;;10.85;100.00
7058;BME280;3570;43.080;25.628;2022-10-16T06:02:58;-19768.25;;;10.81;100.00
7058;BME280;3570;43.080;25.628;2022-10-16T06:05:42;-19789.44;;;11.54;100.00
7058;BME280;3570;43.080;25.628;2022-10-16T06:08:27;-19793.38;;;11.67;100.00
7058;BME280;3570;43.080;25.628;2022-10-16T06:11:22;-19793.22;;;11.67;100.00
7058;BME280;3570;43.080;25.628;2022-10-16T06:14:08;-19796.28;;;11.77;100.00
7058;BME280;3570;43.080;25.628;2022-10-16T06:16:52;-19802.28;;;11.98;100.00
7058;BME280;3570;43.080;25.628;2022-10-16T06:19:36;-19784.31;;;11.36;100.00
7058;BME280;3570;43.080;25.628;2022-10-16T06:22:20;-19784.47;;;11.36;100.00
7058;BME280;3570;43.080;25.628;2022-10-16T06:25:04;-19780.22;;;11.22;100.00
7058;BME280;3570;43.080;25.628;2022-10-16T06:27:48;-19771.47;;;10.92;100.00
7058;BME280;3570;43.080;25.628;2022-10-16T06:30:32;-19785.03;;;11.38;100.00
7058;BME280;3570;43.080;25.628;2022-10-16T06:33:16;-19809.13;;;12.21;100.00
7058;BME280;3570;43.080;25.628;2022-10-16T06:36:07;-19820.81;;;12.62;100.00
7058;BME280;3570;43.080;25.628;2022-10-16T06:38:52;-19813.81;;;12.38;100.00
7058;BME280;3570;43.080;25.628;2022-10-16T06:41:37;-19816.44;;;12.47;100.00
7058;BME280;3570;43.080;25.628;2022-10-16T06:44:22;-19815.53;;;12.44;100.00
7058;BME280;3570;43.080;25.628;2022-10-16T06:47:09;-19797.88;;;11.83;100.00
7058;BME280;3570;43.080;25.628;2022-10-16T06:49:53;-19787.38;;;11.47;100.00
7058;BME280;3570;43.080;25.628;2022-10-16T06:52:37;-19793.06;;;11.66;100.00
7058;BME280;3570;43.080;25.628;2022-10-16T06:55:21;-19791.03;;;11.59;100.00
7058;BME280;3570;43.080;25.628;2022-10-16T06:58:04;-19810.00;;;12.24;100.00
7058;BME280;3570;43.080;25.628;2022-10-16T07:00:49;-19831.88;;;13.00;100.00
7058;BME280;3570;43.080;25.628;2022-10-16T07:03:39;-19837.13;;;13.18;100.00
7058;BME280;3570;43.080;25.628;2022-10-16T07:06:25;-19841.66;;;13.34;100.00
7058;BME280;3570;43.080;25.628;2022-10-16T07:09:11;-19842.09;;;13.35;100.00
7058;BME280;3570;43.080;25.628;2022-10-16T07:11:55;-19838.00;;;13.21;100.00
7058;BME280;3570;43.080;25.628;2022-10-16T07:14:39;-19853.59;;;13.75;100.00
7058;BME280;3570;43.080;25.628;2022-10-16T07:17:23;-19865.53;;;14.16;100.00
7058;BME280;3570;43.080;25.628;2022-10-16T07:20:07;-19869.91;;;14.31;100.00
7058;BME280;3570;43.080;25.628;2022-10-16T07:22:52;-19857.81;;;13.89;100.00
7058;BME280;3570;43.080;25.628;2022-10-16T07:25:36;-19860.44;;;13.98;100.00
7058;BME280;3570;43.080;25.628;2022-10-16T07:28:20;-19857.38;;;13.88;100.00
7058;BME280;3570;43.080;25.628;2022-10-16T07:31:06;-19858.41;;;13.91;100.00
7058;BME280;3570;43.080;25.628;2022-10-16T07:33:51;-19873.56;;;14.44;100.00
7058;BME280;3570;43.080;25.628;2022-10-16T07:36:35;-19879.69;;;14.65;100.00
7058;BME280;3570;43.080;25.628;2022-10-16T07:39:19;-19880.25;;;14.67;100.00
7058;BME280;3570;43.080;25.628;2022-10-16T07:42:03;-19892.94;;;15.10;100.00
7058;BME280;3570;43.080;25.628;2022-10-16T07:44:47;-19908.06;;;15.63;100.00
7058;BME280;3570;43.080;25.628;2022-10-16T07:47:31;-19908.22;;;15.63;100.00
7058;BME280;3570;43.080;25.628;2022-10-16T07:50:15;-19907.78;;;15.62;100.00
7058;BME280;3570;43.080;25.628;2022-10-16T07:52:59;-19911.69;;;15.75;99.81
7058;BME280;3570;43.080;25.628;2022-10-16T07:55:43;-19921.59;;;16.10;97.63
7058;BME280;3570;43.080;25.628;2022-10-16T07:58:28;-19919.25;;;16.01;98.36
7058;BME280;3570;43.080;25.628;2022-10-16T08:01:14;-19922.75;;;16.14;97.76
7058;BME280;3570;43.080;25.628;2022-10-16T08:03:59;-19931.47;;;16.44;95.95
7058;BME280;3570;43.080;25.628;2022-10-16T08:06:44;-19937.75;;;16.65;95.01
7058;BME280;3570;43.080;25.628;2022-10-16T08:09:27;-19933.22;;;16.50;95.02
7058;BME280;3570;43.080;25.628;2022-10-16T08:12:11;-19924.78;;;16.21;97.67
7058;BME280;3570;43.080;25.628;2022-10-16T08:14:55;-19922.31;;;16.12;97.64
7058;BME280;3570;43.080;25.628;2022-10-16T08:17:39;-19920.44;;;16.06;97.79
7058;BME280;3570;43.080;25.628;2022-10-16T08:20:24;-19935.56;;;16.58;95.41
7058;BME280;3570;43.080;25.628;2022-10-16T08:23:12;-19932.94;;;16.49;93.85
7058;BME280;3570;43.080;25.628;2022-10-16T08:26:05;-19958.38;;;17.37;90.26
7058;BME280;3570;43.080;25.628;2022-10-16T08:28:50;-19990.19;;;18.47;81.85
7058;BME280;3570;43.080;25.628;2022-10-16T08:31:35;-20003.97;;;18.95;78.00
7058;BME280;3570;43.080;25.628;2022-10-16T08:34:19;-20026.75;;;19.74;72.63
7058;BME280;3570;43.080;25.628;2022-10-16T08:37:03;-20055.59;;;20.74;63.68
7058;BME280;3570;43.080;25.628;2022-10-16T08:39:47;-20061.81;;;20.95;62.15
7058;BME280;3570;43.080;25.628;2022-10-16T08:48:46;-20091.38;;;21.98;57.73
7058;BME280;3570;43.080;25.628;2022-10-16T08:51:34;-20096.88;;;22.17;56.11
7058;BME280;3570;43.080;25.628;2022-10-16T08:54:36;-20098.88;;;22.24;55.76
7058;BME280;3570;43.080;25.628;2022-10-16T08:57:25;-20104.97;;;22.45;53.50
7058;BME280;3570;43.080;25.628;2022-10-16T09:00:13;-20103.22;;;22.39;53.31
7058;BME280;3570;43.080;25.628;2022-10-16T09:15:29;-20085.28;;;21.77;53.01
7058;BME280;3570;43.080;25.628;2022-10-16T09:21:44;-20134.63;;;23.48;44.93
7058;BME280;3570;43.080;25.628;2022-10-16T09:24:29;-20169.13;;;24.68;41.87
7058;BME280;3570;43.080;25.628;2022-10-16T09:27:15;-20173.47;;;24.83;39.23
7058;BME280;3570;43.080;25.628;2022-10-16T09:29:59;-20178.22;;;25.00;38.83
7058;BME280;3570;43.080;25.628;2022-10-16T09:32:45;-20171.31;;;24.76;39.52
7058;BME280;3570;43.080;25.628;2022-10-16T09:35:40;-20192.66;;;25.50;38.73
7058;BME280;3570;43.080;25.628;2022-10-16T09:38:32;-20181.69;;;25.12;38.66
7058;BME280;3570;43.080;25.628;2022-10-16T09:41:18;-20184.56;;;25.22;37.61
7058;BME280;3570;43.080;25.628;2022-10-16T09:44:05;-20208.38;;;26.05;36.18
7058;BME280;3570;43.080;25.628;2022-10-16T09:49:57;-20216.16;;;26.32;34.58
7058;BME280;3570;43.080;25.628;2022-10-16T09:52:45;-20224.81;;;26.62;34.29
7058;BME280;3570;43.080;25.628;2022-10-16T09:55:29;-20228.84;;;26.76;33.98
7058;BME280;3570;43.080;25.628;2022-10-16T09:58:13;-20218.63;;;26.41;34.56
7058;BME280;3570;43.080;25.628;2022-10-16T10:00:57;-20217.59;;;26.37;34.42
7058;BME280;3570;43.080;25.628;2022-10-16T10:03:43;-20229.28;;;26.78;33.56
7058;BME280;3570;43.080;25.628;2022-10-16T10:06:42;-20243.09;;;27.26;33.87
7058;BME280;3570;43.080;25.628;2022-10-16T10:12:20;-20255.91;;;27.71;33.22
7058;BME280;3570;43.080;25.628;2022-10-16T10:15:07;-20264.56;;;28.01;32.73
7058;BME280;3570;43.080;25.628;2022-10-16T10:17:55;-20282.09;;;28.62;31.19
7058;BME280;3570;43.080;25.628;2022-10-16T10:20:40;-20252.03;;;27.57;31.95
7058;BME280;3570;43.080;25.628;2022-10-16T10:23:26;-20251.75;;;27.56;32.46
7058;BME280;3570;43.080;25.628;2022-10-16T10:26:21;-20255.63;;;27.70;31.93
7058;BME280;3570;43.080;25.628;2022-10-16T10:29:20;-20264.56;;;28.01;31.63
7058;BME280;3570;43.080;25.628;2022-10-16T10:32:28;-20262.97;;;27.96;31.12
7058;BME280;3570;43.080;25.628;2022-10-16T10:53:50;-20343.00;;;30.76;28.09
7058;BME280;3570;43.080;25.628;2022-10-16T10:56:47;-20341.56;;;30.71;27.90
7058;BME280;3570;43.080;25.628;2022-10-16T11:05:41;-20280.66;;;28.57;30.28
7058;BME280;3570;43.080;25.628;2022-10-16T11:08:32;-20298.78;;;29.21;29.84
7058;BME280;3570;43.080;25.628;2022-10-16T11:11:30;-20310.84;;;29.63;29.35
7058;BME280;3570;43.080;25.628;2022-10-16T11:14:20;-20282.97;;;28.65;30.69
7058;BME280;3570;43.080;25.628;2022-10-16T11:17:17;-20293.59;;;29.03;30.20
7058;BME280;3570;43.080;25.628;2022-10-16T11:20:16;-20325.34;;;30.14;28.77
7058;BME280;3570;43.080;25.628;2022-10-16T11:26:21;-20318.31;;;29.89;29.11
7058;BME280;3570;43.080;25.628;2022-10-16T11:29:17;-20309.69;;;29.59;29.39
7058;BME280;3570;43.080;25.628;2022-10-16T11:32:23;-20329.81;;;30.29;28.71
7058;BME280;3570;43.080;25.628;2022-10-16T11:35:23;-20306.69;;;29.48;29.55
7058;BME280;3570;43.080;25.628;2022-10-16T11:38:30;-20327.78;;;30.22;28.85
7058;BME280;3570;43.080;25.628;2022-10-16T11:47:27;-20335.84;;;30.50;28.36
7058;BME280;3570;43.080;25.628;2022-10-16T11:56:32;-20384.44;;;32.21;25.69
7058;BME280;3570;43.080;25.628;2022-10-16T11:59:48;-20395.31;;;32.59;26.31
7058;BME280;3570;43.080;25.628;2022-10-16T12:08:15;-20404.63;;;32.92;25.31
7058;BME280;3570;43.080;25.628;2022-10-16T12:11:53;-20376.56;;;31.93;25.50
7058;BME280;3570;43.080;25.628;2022-10-16T12:16:58;-20387.44;;;32.31;26.08
7058;BME280;3570;43.080;25.628;2022-10-16T12:19:43;-20406.63;;;32.99;24.73
7058;BME280;3570;43.080;25.628;2022-10-16T12:22:29;-20313.16;;;29.71;27.11
7058;BME280;3570;43.080;25.628;2022-10-16T12:25:40;-20312.72;;;29.69;29.40
7058;BME280;3570;43.080;25.628;2022-10-16T12:28:31;-20370.53;;;31.72;27.69
7058;BME280;3570;43.080;25.628;2022-10-16T12:31:17;-20395.03;;;32.58;26.15
7058;BME280;3570;43.080;25.628;2022-10-16T12:34:03;-20393.31;;;32.52;25.13
7058;BME280;3570;43.080;25.628;2022-10-16T12:36:48;-20390.59;;;32.42;26.07
7058;BME280;3570;43.080;25.628;2022-10-16T12:39:32;-20410.06;;;33.11;25.20
7058;BME280;3570;43.080;25.628;2022-10-16T12:42:20;-20390.31;;;32.42;24.92
7058;BME280;3570;43.080;25.628;2022-10-16T12:45:27;-20416.34;;;33.33;24.88
7058;BME280;3570;43.080;25.628;2022-10-16T12:48:21;-20417.78;;;33.38;25.03
7058;BME280;3570;43.080;25.628;2022-10-16T12:51:33;-20399.47;;;32.74;24.94
7058;BME280;3570;43.080;25.628;2022-10-16T12:54:38;-20405.06;;;32.93;25.34
7058;BME280;3570;43.080;25.628;2022-10-16T13:00:41;-20374.41;;;31.86;25.81
7058;BME280;3570;43.080;25.628;2022-10-16T13:12:49;-20383.44;;;32.17;26.00
7058;BME280;3570;43.080;25.628;2022-10-16T13:21:53;-20420.38;;;33.47;23.66
7058;BME280;3570;43.080;25.628;2022-10-16T13:27:41;-20430.53;;;33.83;23.64
7058;BME280;3570;43.080;25.628;2022-10-16T13:30:33;-20432.25;;;33.89;24.01
7058;BME280;3570;43.080;25.628;2022-10-16T13:33:38;-20408.91;;;33.07;24.42
7058;BME280;3570;43.080;25.628;2022-10-16T13:36:28;-20368.97;;;31.67;25.42
7058;BME280;3570;43.080;25.628;2022-10-16T13:39:15;-20386.72;;;32.29;25.57
7058;BME280;3570;43.080;25.628;2022-10-16T13:42:07;-20384.28;;;32.20;25.36
7058;BME280;3570;43.080;25.628;2022-10-16T13:44:56;-20387.59;;;32.32;25.40
7058;BME280;3570;43.080;25.628;2022-10-16T13:47:41;-20414.66;;;33.27;24.34
7058;BME280;3570;43.080;25.628;2022-10-16T13:50:25;-20429.25;;;33.78;23.66
7058;BME280;3570;43.080;25.628;2022-10-16T13:53:13;-20427.09;;;33.71;23.50
7058;BME280;3570;43.080;25.628;2022-10-16T13:55:58;-20426.66;;;33.69;24.07
7058;BME280;3570;43.080;25.628;2022-10-16T13:58:44;-20398.03;;;32.69;24.15
7058;BME280;3570;43.080;25.628;2022-10-16T14:04:14;-20425.66;;;33.66;23.55
7058;BME280;3570;43.080;25.628;2022-10-16T14:06:59;-20399.75;;;32.75;24.31
7058;BME280;3570;43.080;25.628;2022-10-16T14:09:48;-20378.13;;;31.99;25.04
7058;BME280;3570;43.080;25.628;2022-10-16T14:12:34;-20381.72;;;32.11;24.31
7058;BME280;3570;43.080;25.628;2022-10-16T14:15:19;-20381.16;;;32.09;24.50
7058;BME280;3570;43.080;25.628;2022-10-16T14:18:04;-20397.19;;;32.66;24.92
7058;BME280;3570;43.080;25.628;2022-10-16T14:20:49;-20386.59;;;32.28;23.79
7058;BME280;3570;43.080;25.628;2022-10-16T14:23:36;-20406.34;;;32.98;24.53
7058;BME280;3570;43.080;25.628;2022-10-16T14:26:28;-20404.06;;;32.90;24.81
7058;BME280;3570;43.080;25.628;2022-10-16T14:29:14;-20372.84;;;31.80;25.32
7058;BME280;3570;43.080;25.628;2022-10-16T14:32:01;-20356.47;;;31.23;26.21
7058;BME280;3570;43.080;25.628;2022-10-16T14:34:53;-20376.28;;;31.92;24.60
7058;BME280;3570;43.080;25.628;2022-10-16T14:37:37;-20353.91;;;31.14;26.02
7058;BME280;3570;43.080;25.628;2022-10-16T14:40:25;-20347.88;;;30.93;25.27
7058;BME280;3570;43.080;25.628;2022-10-16T14:43:39;-20345.16;;;30.83;25.40
7058;BME280;3570;43.080;25.628;2022-10-16T14:46:28;-20328.66;;;30.25;25.71
7058;BME280;3570;43.080;25.628;2022-10-16T14:49:17;-20306.53;;;29.48;26.34
7058;BME280;3570;43.080;25.628;2022-10-16T14:51:47;-20300.34;;;29.26;26.78
7058;BME280;3570;43.080;25.628;2022-10-16T14:54:17;-20300.22;;;29.26;27.96
7058;BME280;3570;43.080;25.628;2022-10-16T14:56:57;-20291.00;;;28.94;29.49
7058;BME280;3570;43.080;25.628;2022-10-16T15:02:30;-20263.41;;;27.97;28.92
7058;BME280;3570;43.080;25.628;2022-10-16T15:04:54;-20239.78;;;27.15;30.98
7058;BME280;3570;43.080;25.628;2022-10-16T15:07:20;-20211.84;;;26.17;31.41
7058;BME280;3570;43.080;25.628;2022-10-16T15:09:46;-20195.53;;;25.60;32.65
7058;BME280;3570;43.080;25.628;2022-10-16T15:12:12;-20177.66;;;24.98;34.20
7058;BME280;3570;43.080;25.628;2022-10-16T15:14:37;-20163.06;;;24.47;35.29
7058;BME280;3570;43.080;25.628;2022-10-16T15:17:03;-20133.03;;;23.43;36.78
7058;BME280;3570;43.080;25.628;2022-10-16T15:19:29;-20096.44;;;22.15;38.50
7058;BME280;3570;43.080;25.628;2022-10-16T15:21:55;-20055.16;;;20.72;42.70
7058;BME280;3570;43.080;25.628;2022-10-16T15:24:20;-20033.41;;;19.97;45.50
7058;BME280;3570;43.080;25.628;2022-10-16T15:26:46;-20011.66;;;19.21;48.15
7058;BME280;3570;43.080;25.628;2022-10-16T15:29:12;-19986.84;;;18.35;53.86
7058;BME280;3570;43.080;25.628;2022-10-16T15:31:38;-19995.72;;;18.66;55.32
7058;BME280;3570;43.080;25.628;2022-10-16T15:34:08;-19992.94;;;18.56;55.72
7058;BME280;3570;43.080;25.628;2022-10-16T15:36:36;-19969.84;;;17.76;54.38
7058;BME280;3570;43.080;25.628;2022-10-16T15:39:13;-19973.34;;;17.88;56.81
7058;BME280;3570;43.080;25.628;2022-10-16T15:41:39;-19963.19;;;17.53;59.12
7058;BME280;3570;43.080;25.628;2022-10-16T15:44:04;-19962.31;;;17.50;58.76
7058;BME280;3570;43.080;25.628;2022-10-16T15:46:30;-19958.53;;;17.37;61.57
7058;BME280;3570;43.080;25.628;2022-10-16T15:48:57;-19955.91;;;17.28;61.33
7058;BME280;3570;43.080;25.628;2022-10-16T15:51:24;-19955.03;;;17.25;61.97
7058;BME280;3570;43.080;25.628;2022-10-16T15:53:50;-19952.84;;;17.18;61.25
7058;BME280;3570;43.080;25.628;2022-10-16T15:56:18;-19951.41;;;17.13;60.14
7058;BME280;3570;43.080;25.628;2022-10-16T15:58:44;-19950.38;;;17.09;61.42
7058;BME280;3570;43.080;25.628;2022-10-16T16:01:10;-19948.94;;;17.04;63.43
7058;BME280;3570;43.080;25.628;2022-10-16T16:03:37;-19943.69;;;16.86;61.48
7058;BME280;3570;43.080;25.628;2022-10-16T16:06:05;-19935.13;;;16.56;65.00
7058;BME280;3570;43.080;25.628;2022-10-16T16:08:33;-19930.91;;;16.42;63.17
7058;BME280;3570;43.080;25.628;2022-10-16T16:11:04;-19927.69;;;16.31;66.04
7058;BME280;3570;43.080;25.628;2022-10-16T16:13:30;-19919.25;;;16.01;64.78
7058;BME280;3570;43.080;25.628;2022-10-16T16:15:56;-19916.94;;;15.93;67.45
7058;BME280;3570;43.080;25.628;2022-10-16T16:18:22;-19916.38;;;15.91;66.05
7058;BME280;3570;43.080;25.628;2022-10-16T16:20:49;-19915.34;;;15.88;68.50
7058;BME280;3570;43.080;25.628;2022-10-16T16:23:15;-19909.53;;;15.68;64.78
7058;BME280;3570;43.080;25.628;2022-10-16T16:25:40;-19914.31;;;15.84;66.59
7058;BME280;3570;43.080;25.628;2022-10-16T16:28:06;-19903.84;;;15.48;66.53